Time;durP1;ratioP1;P1;durP2;ratioP2;P2;SDS_P1;SDS_P2;PMS_P1;PMS_P2;Temp;Humidity;BMP_temperature;BMP_pressure;BME280_temperature;BME280_humidity;BME280_pressure;Samples;Min_cycle;Max_cycle;Signal;HPM_P1;HPM_P2
2022/10/11 00:01:49;;;;;;;1.45;0.63;;;20.50;86.40;;;;;;4998545;28;45328;-73
2022/10/11 00:04:16;;;;;;;2.10;0.70;;;20.50;87.10;;;;;;5002726;28;45345;-73
2022/10/11 00:06:43;;;;;;;1.42;0.60;;;20.50;87.30;;;;;;5001839;28;45429;-73
2022/10/11 00:09:11;;;;;;;1.75;0.70;;;20.50;86.90;;;;;;5003023;28;45382;-73
2022/10/11 00:11:38;;;;;;;1.08;0.30;;;20.50;86.80;;;;;;5002846;28;45606;-73
2022/10/11 00:14:05;;;;;;;2.65;0.70;;;20.50;87.10;;;;;;5000875;28;46827;-73
2022/10/11 00:16:34;;;;;;;1.17;0.65;;;20.50;86.70;;;;;;5001160;28;45629;-73
2022/10/11 00:19:01;;;;;;;1.20;0.80;;;20.50;87.00;;;;;;5001852;28;45410;-73
2022/10/11 00:21:27;;;;;;;2.58;0.93;;;20.50;86.70;;;;;;5004502;28;45515;-73
2022/10/11 00:23:54;;;;;;;1.80;0.52;;;20.50;87.00;;;;;;5003178;28;46415;-72
2022/10/11 00:26:21;;;;;;;1.30;0.50;;;20.50;86.70;;;;;;5001963;28;45504;-73
2022/10/11 00:28:51;;;;;;;1.27;0.43;;;20.50;86.80;;;;;;5001158;28;45263;-73
2022/10/11 00:31:17;;;;;;;1.77;0.60;;;20.50;86.90;;;;;;5002316;28;45355;-72
2022/10/11 00:33:46;;;;;;;2.15;0.57;;;20.50;86.80;;;;;;5001388;28;48223;-73
2022/10/11 00:36:15;;;;;;;2.42;0.68;;;20.50;86.90;;;;;;4999594;28;45379;-73
2022/10/11 00:38:42;;;;;;;1.88;0.68;;;20.50;86.50;;;;;;5000677;28;45489;-73
2022/10/11 00:41:10;;;;;;;1.70;0.70;;;20.50;86.60;;;;;;5002152;28;45284;-73
2022/10/11 00:43:36;;;;;;;2.25;0.60;;;20.50;86.90;;;;;;5002658;28;46387;-72
2022/10/11 00:46:29;;;;;;;1.58;0.50;;;20.50;86.90;;;;;;5000919;28;45405;-73
2022/10/11 00:49:02;;;;;;;1.23;0.55;;;20.50;86.90;;;;;;5001270;28;45409;-73
2022/10/11 00:51:48;;;;;;;1.15;0.50;;;20.50;86.30;;;;;;4992500;28;45455;-73
2022/10/11 00:54:18;;;;;;;2.30;0.63;;;20.50;86.30;;;;;;5001880;28;47173;-73
2022/10/11 00:56:48;;;;;;;2.50;0.60;;;20.50;86.10;;;;;;5002042;28;45388;-73
2022/10/11 00:59:18;;;;;;;1.00;0.50;;;20.50;86.30;;;;;;5002530;28;45271;-73
2022/10/11 01:01:45;;;;;;;1.80;0.65;;;20.50;86.10;;;;;;4977137;28;45498;-73
2022/10/11 01:04:13;;;;;;;1.05;0.70;;;20.50;86.00;;;;;;4973696;28;47549;-73
2022/10/11 01:06:41;;;;;;;0.93;0.52;;;20.50;85.90;;;;;;4981696;28;45240;-73
2022/10/11 01:09:09;;;;;;;2.05;0.60;;;20.50;85.90;;;;;;4981349;28;45335;-73
2022/10/11 01:11:39;;;;;;;2.13;0.70;;;20.50;86.30;;;;;;4983034;28;45534;-73
2022/10/11 01:14:34;;;;;;;1.95;0.60;;;20.50;86.20;;;;;;4981830;28;47081;-73
2022/10/11 01:17:08;;;;;;;1.00;0.45;;;20.50;85.90;;;;;;4977600;28;45295;-73
2022/10/11 01:20:02;;;;;;;1.42;0.70;;;20.50;86.30;;;;;;4976319;28;45287;-73
2022/10/11 01:22:55;;;;;;;0.90;0.63;;;20.50;85.90;;;;;;4978920;28;45247;-73
2022/10/11 01:25:28;;;;;;;2.33;0.60;;;20.50;85.90;;;;;;4980076;28;45395;-73
2022/10/11 01:28:07;;;;;;;0.98;0.50;;;20.50;85.90;;;;;;4982023;28;45449;-73
2022/10/11 01:30:37;;;;;;;1.85;0.47;;;20.50;86.10;;;;;;4981949;28;45291;-73
2022/10/11 01:33:14;;;;;;;1.30;0.35;;;20.50;86.10;;;;;;4969896;28;45354;-73
2022/10/11 01:35:46;;;;;;;2.03;0.60;;;20.50;85.90;;;;;;4981428;28;47042;-73
2022/10/11 01:38:20;;;;;;;3.10;0.82;;;20.50;86.00;;;;;;4969741;28;46128;-73
2022/10/11 01:40:50;;;;;;;1.60;0.63;;;20.50;85.90;;;;;;4981579;28;45336;-73
2022/10/11 01:43:20;;;;;;;2.30;0.60;;;20.50;86.00;;;;;;4978423;28;45372;-73
2022/10/11 01:45:52;;;;;;;1.55;0.60;;;20.50;85.90;;;;;;4977419;28;46126;-73
2022/10/11 01:48:20;;;;;;;0.95;0.52;;;20.50;86.00;;;;;;4981192;28;46669;-73
2022/10/11 01:50:49;;;;;;;2.15;0.63;;;20.50;85.70;;;;;;4969775;28;45623;-73
2022/10/11 01:53:48;;;;;;;1.48;0.43;;;20.50;85.90;;;;;;4980857;28;45294;-73
2022/10/11 01:56:26;;;;;;;2.17;0.70;;;20.50;85.70;;;;;;4979203;28;48125;-73
2022/10/11 01:59:11;;;;;;;3.17;0.85;;;20.50;85.50;;;;;;4976852;28;45347;-73
2022/10/11 02:01:49;;;;;;;1.83;0.80;;;20.50;85.70;;;;;;4977008;28;45371;-73
2022/10/11 02:04:24;;;;;;;2.03;0.70;;;20.50;85.70;;;;;;4978775;28;45490;-73
2022/10/11 02:06:58;;;;;;;1.60;0.60;;;20.50;85.60;;;;;;4975167;28;46869;-73
2022/10/11 02:09:34;;;;;;;0.85;0.60;;;20.50;85.70;;;;;;4978722;28;45568;-73
2022/10/11 02:12:06;;;;;;;1.08;0.60;;;20.50;85.60;;;;;;4973477;28;45277;-73
2022/10/11 02:14:36;;;;;;;1.50;0.70;;;20.40;86.00;;;;;;4985578;28;45453;-73
2022/10/11 02:17:10;;;;;;;2.50;0.63;;;20.50;85.30;;;;;;4984124;28;46045;-73
2022/10/11 02:19:40;;;;;;;2.40;0.70;;;20.50;85.30;;;;;;4977937;28;45426;-73
2022/10/11 02:22:13;;;;;;;0.60;0.50;;;20.50;85.20;;;;;;4982611;28;45416;-73
2022/10/11 02:24:43;;;;;;;1.83;0.70;;;20.50;85.20;;;;;;4981688;28;45436;-73
2022/10/11 02:27:12;;;;;;;0.98;0.55;;;20.50;85.20;;;;;;4984816;28;47097;-73
2022/10/11 02:29:41;;;;;;;2.28;0.65;;;20.50;85.30;;;;;;4977525;28;45261;-73
2022/10/11 02:32:11;;;;;;;1.90;0.65;;;20.50;85.20;;;;;;4981674;28;45503;-73
2022/10/11 02:34:44;;;;;;;3.22;0.70;;;20.50;85.40;;;;;;4984770;28;45379;-72
2022/10/11 02:37:18;;;;;;;1.80;0.63;;;20.50;85.20;;;;;;4972422;28;48489;-73
2022/10/11 02:39:48;;;;;;;1.00;0.60;;;20.50;85.20;;;;;;4978018;28;45470;-73
2022/10/11 02:42:19;;;;;;;1.08;0.55;;;20.50;85.20;;;;;;4982507;28;45319;-73
2022/10/11 02:44:52;;;;;;;0.75;0.38;;;20.50;85.30;;;;;;4984007;28;45477;-73
2022/10/11 02:47:20;;;;;;;0.80;0.60;;;20.50;85.40;;;;;;4982599;28;46092;-73
2022/10/11 02:49:47;;;;;;;2.28;0.60;;;20.50;84.70;;;;;;4983085;28;45361;-73
2022/10/11 02:52:14;;;;;;;0.73;0.40;;;20.50;84.90;;;;;;4983813;28;45426;-73
2022/10/11 02:54:41;;;;;;;1.70;0.73;;;20.50;84.80;;;;;;4984648;28;45449;-73
2022/10/11 02:57:08;;;;;;;2.05;0.77;;;20.50;84.80;;;;;;4981868;28;46494;-73
2022/10/11 02:59:35;;;;;;;1.20;0.63;;;20.50;84.60;;;;;;4980010;28;45482;-73
2022/10/11 03:02:01;;;;;;;0.80;0.50;;;20.40;84.20;;;;;;4981343;28;45447;-73
2022/10/11 03:04:29;;;;;;;1.55;0.70;;;20.40;84.50;;;;;;4983738;28;45380;-73
2022/10/11 03:06:56;;;;;;;0.82;0.45;;;20.40;84.40;;;;;;4982877;28;45453;-73
2022/10/11 03:09:23;;;;;;;1.45;0.60;;;20.40;84.30;;;;;;4980648;28;45618;-73
2022/10/11 03:11:50;;;;;;;1.90;0.68;;;20.40;84.30;;;;;;4978222;28;45404;-73
2022/10/11 03:14:17;;;;;;;1.02;0.40;;;20.40;84.30;;;;;;4976063;28;45578;-73
2022/10/11 03:16:43;;;;;;;1.08;0.50;;;20.40;84.10;;;;;;4983731;28;47975;-73
2022/10/11 03:19:10;;;;;;;1.35;0.63;;;20.40;84.20;;;;;;4971911;28;45357;-73
2022/10/11 03:21:38;;;;;;;1.92;0.60;;;20.40;84.10;;;;;;4981836;28;45223;-73
2022/10/11 03:24:06;;;;;;;1.08;0.50;;;20.40;84.30;;;;;;4983352;28;45589;-73
2022/10/11 03:26:32;;;;;;;1.08;0.60;;;20.40;84.00;;;;;;4978929;28;47755;-73
2022/10/11 03:28:59;;;;;;;1.55;0.60;;;20.40;84.10;;;;;;4979761;28;45328;-73
2022/10/11 03:31:26;;;;;;;3.13;0.60;;;20.40;84.00;;;;;;4978984;28;45767;-73
2022/10/11 03:33:53;;;;;;;1.25;0.57;;;20.40;83.90;;;;;;4970955;28;45562;-73
2022/10/11 03:36:19;;;;;;;1.10;0.50;;;20.50;84.20;;;;;;4974657;28;48128;-73
2022/10/11 03:38:48;;;;;;;1.27;0.60;;;20.50;84.20;;;;;;4981980;28;45514;-73
2022/10/11 03:41:14;;;;;;;1.35;0.60;;;20.50;84.20;;;;;;4981097;28;45307;-73
2022/10/11 03:43:41;;;;;;;1.60;0.70;;;20.50;84.20;;;;;;4972891;28;45435;-73
2022/10/11 03:46:08;;;;;;;0.80;0.65;;;20.50;83.80;;;;;;4982859;28;48271;-73
2022/10/11 03:48:35;;;;;;;2.38;0.70;;;20.50;83.90;;;;;;4983801;28;45339;-73
2022/10/11 03:51:02;;;;;;;0.93;0.63;;;20.50;83.80;;;;;;4980168;28;45343;-73
2022/10/11 03:53:28;;;;;;;1.98;0.70;;;20.40;83.50;;;;;;4975900;28;45287;-73
2022/10/11 03:55:57;;;;;;;1.52;0.60;;;20.40;82.80;;;;;;4982007;28;45525;-72
2022/10/11 03:58:23;;;;;;;2.25;0.65;;;20.40;81.10;;;;;;4973249;28;45470;-74
2022/10/11 04:00:52;;;;;;;0.98;0.68;;;20.40;80.00;;;;;;4972556;28;45248;-73
2022/10/11 04:03:19;;;;;;;1.17;0.70;;;20.40;80.10;;;;;;4982691;28;45492;-73
2022/10/11 04:05:46;;;;;;;1.05;0.70;;;20.40;79.60;;;;;;4982024;28;46567;-73
2022/10/11 04:08:13;;;;;;;1.23;0.55;;;20.40;78.60;;;;;;4974340;28;45600;-73
2022/10/11 04:10:40;;;;;;;1.63;1.02;;;20.40;78.60;;;;;;4977890;28;45527;-72
2022/10/11 04:13:10;;;;;;;2.50;0.90;;;20.30;78.50;;;;;;4981369;28;45445;-73
2022/10/11 04:15:37;;;;;;;3.72;0.80;;;20.30;79.00;;;;;;4982541;28;45709;-72
2022/10/11 04:18:04;;;;;;;1.60;0.60;;;20.30;79.70;;;;;;4973090;28;45282;-73
2022/10/11 04:20:31;;;;;;;1.98;0.90;;;20.30;80.50;;;;;;4971753;28;45489;-71
2022/10/11 04:22:58;;;;;;;1.23;0.70;;;20.30;79.10;;;;;;4977289;28;45427;-72
2022/10/11 04:25:24;;;;;;;2.70;0.95;;;20.30;78.50;;;;;;4975484;28;45271;-71
2022/10/11 04:27:51;;;;;;;3.70;0.93;;;20.30;78.50;;;;;;4978876;28;46110;-73
2022/10/11 04:30:20;;;;;;;4.13;1.00;;;20.30;81.70;;;;;;4979310;28;45370;-72
2022/10/11 04:32:47;;;;;;;3.15;0.90;;;20.30;81.20;;;;;;4978551;28;45578;-73
2022/10/11 04:35:14;;;;;;;3.30;1.10;;;20.30;80.20;;;;;;4981173;28;46653;-73
2022/10/11 04:37:41;;;;;;;1.40;0.80;;;20.30;80.10;;;;;;4982751;28;45397;-73
2022/10/11 04:40:09;;;;;;;5.90;1.42;;;20.30;79.70;;;;;;4982557;28;45341;-72
2022/10/11 04:42:35;;;;;;;2.83;1.10;;;20.40;79.80;;;;;;4976790;28;45474;-72
2022/10/11 04:45:02;;;;;;;3.90;1.08;;;20.30;79.90;;;;;;4971269;28;46721;-72
2022/10/11 04:47:30;;;;;;;2.13;0.88;;;20.40;79.80;;;;;;4980752;28;45458;-72
2022/10/11 04:49:57;;;;;;;1.65;0.73;;;20.40;79.60;;;;;;4974891;28;45285;-73
2022/10/11 04:52:24;;;;;;;2.13;0.95;;;20.40;79.30;;;;;;4981775;28;45341;-72
2022/10/11 04:54:50;;;;;;;3.13;0.90;;;20.40;79.80;;;;;;4981911;28;47049;-73
2022/10/11 04:57:17;;;;;;;2.25;0.70;;;20.40;79.60;;;;;;4981833;28;45659;-73
2022/10/11 04:59:45;;;;;;;1.90;1.13;;;20.40;79.60;;;;;;4977006;28;45383;-73
2022/10/11 05:02:12;;;;;;;1.85;0.95;;;20.40;79.60;;;;;;4982912;28;45240;-73
2022/10/11 05:04:40;;;;;;;3.28;1.17;;;20.40;79.50;;;;;;4978899;28;46621;-72
2022/10/11 05:07:06;;;;;;;1.50;0.70;;;20.40;79.30;;;;;;4973218;28;45351;-73
2022/10/11 05:09:33;;;;;;;2.83;1.00;;;20.40;79.70;;;;;;4982648;28;45510;-72
2022/10/11 05:12:00;;;;;;;2.70;0.95;;;20.40;79.50;;;;;;4981764;28;45493;-72
2022/10/11 05:14:27;;;;;;;3.22;0.70;;;20.40;79.50;;;;;;4969481;28;45449;-72
2022/10/11 05:16:54;;;;;;;1.80;0.80;;;20.40;80.00;;;;;;4981598;28;45204;-72
2022/10/11 05:19:20;;;;;;;2.00;0.70;;;20.40;80.10;;;;;;4976252;28;45403;-72
2022/10/11 05:21:48;;;;;;;0.68;0.47;;;20.40;79.90;;;;;;4973402;28;45664;-72
2022/10/11 05:24:15;;;;;;;2.83;0.95;;;20.40;79.80;;;;;;4977280;28;46472;-72
2022/10/11 05:26:42;;;;;;;1.80;0.90;;;20.40;80.00;;;;;;4976573;28;45400;-72
2022/10/11 05:29:09;;;;;;;1.00;0.80;;;20.40;80.10;;;;;;4973767;28;45375;-73
2022/10/11 05:31:35;;;;;;;3.47;1.00;;;20.40;80.30;;;;;;4980078;28;45324;-72
2022/10/11 05:34:02;;;;;;;1.48;0.75;;;20.40;80.20;;;;;;4979497;28;47405;-72
2022/10/11 05:36:29;;;;;;;3.20;0.80;;;20.40;80.20;;;;;;4972948;28;45398;-72
2022/10/11 05:38:57;;;;;;;3.10;0.80;;;20.40;79.80;;;;;;4975259;28;45250;-72
2022/10/11 05:41:24;;;;;;;3.25;1.05;;;20.40;79.70;;;;;;4985038;28;45702;-72
2022/10/11 05:43:50;;;;;;;1.67;0.93;;;20.40;79.70;;;;;;4984148;28;47452;-72
2022/10/11 05:46:17;;;;;;;1.95;0.77;;;20.40;79.80;;;;;;4983194;28;45291;-72
2022/10/11 05:48:44;;;;;;;2.17;0.80;;;20.40;79.50;;;;;;4982043;28;45687;-73
2022/10/11 05:51:11;;;;;;;1.70;0.93;;;20.30;79.30;;;;;;4984881;28;45449;-72
2022/10/11 05:53:39;;;;;;;4.00;0.90;;;20.30;79.50;;;;;;4981418;28;48368;-72
2022/10/11 05:56:19;;;;;;;2.72;0.80;;;20.30;79.30;;;;;;4983996;28;45446;-72
2022/10/11 05:58:45;;;;;;;2.70;0.73;;;20.30;79.10;;;;;;4983845;28;45516;-72
2022/10/11 06:01:20;;;;;;;1.02;0.73;;;20.30;79.20;;;;;;4976763;28;45583;-72
2022/10/11 06:03:48;;;;;;;1.30;0.80;;;20.30;79.10;;;;;;4975418;28;45418;-72
2022/10/11 06:06:15;;;;;;;2.45;0.98;;;20.30;78.70;;;;;;4983332;28;45480;-73
2022/10/11 06:08:43;;;;;;;1.60;0.80;;;20.30;79.40;;;;;;4977176;28;45548;-72
2022/10/11 06:11:13;;;;;;;2.10;0.80;;;20.30;79.20;;;;;;4985634;28;45504;-72
2022/10/11 06:13:41;;;;;;;1.27;0.70;;;20.30;79.40;;;;;;4981824;28;45634;-73
2022/10/11 06:16:08;;;;;;;1.88;0.80;;;20.30;79.40;;;;;;4983728;28;45319;-72
2022/10/11 06:18:34;;;;;;;2.45;1.00;;;20.30;79.00;;;;;;4978559;28;45260;-72
2022/10/11 06:21:01;;;;;;;1.80;0.60;;;20.30;79.00;;;;;;4978088;28;45220;-72
2022/10/11 06:23:28;;;;;;;3.15;1.20;;;20.30;78.50;;;;;;4982183;28;45390;-72
2022/10/11 06:25:58;;;;;;;3.03;0.80;;;20.30;78.70;;;;;;4976957;28;45570;-73
2022/10/11 06:28:28;;;;;;;2.42;0.82;;;20.30;78.50;;;;;;4972770;28;45397;-73
2022/10/11 06:30:55;;;;;;;1.27;0.90;;;20.30;78.70;;;;;;4978815;28;45402;-73
2022/10/11 06:33:23;;;;;;;2.63;1.10;;;20.30;78.50;;;;;;4984062;28;47108;-73
2022/10/11 06:35:49;;;;;;;3.67;1.40;;;20.30;78.50;;;;;;4976601;28;45461;-72
2022/10/11 06:38:16;;;;;;;2.38;1.05;;;20.40;78.60;;;;;;4981822;28;45334;-73
2022/10/11 06:40:43;;;;;;;2.08;0.90;;;20.30;78.50;;;;;;4984865;28;45247;-73
2022/10/11 06:43:10;;;;;;;1.95;1.00;;;20.30;78.50;;;;;;4976394;28;47563;-72
2022/10/11 06:45:38;;;;;;;1.88;1.02;;;20.30;78.50;;;;;;4978303;28;45544;-73
2022/10/11 06:48:05;;;;;;;3.15;1.10;;;20.30;78.50;;;;;;4981949;28;45343;-72
2022/10/11 06:50:32;;;;;;;3.65;1.30;;;20.30;78.50;;;;;;4983647;28;45323;-72
2022/10/11 06:52:59;;;;;;;2.60;1.25;;;20.30;78.50;;;;;;4980922;28;47133;-72
2022/10/11 06:55:26;;;;;;;3.17;0.95;;;20.30;78.50;;;;;;4972602;28;45350;-72
2022/10/11 06:57:53;;;;;;;2.70;1.10;;;20.30;78.50;;;;;;4976148;28;45528;-72
2022/10/11 07:00:20;;;;;;;3.00;0.93;;;20.30;78.50;;;;;;4982272;28;45204;-72
2022/10/11 07:02:49;;;;;;;1.90;1.00;;;20.30;78.50;;;;;;4983493;28;46338;-72
2022/10/11 07:05:17;;;;;;;2.63;0.95;;;20.30;78.50;;;;;;4982859;28;45335;-72
2022/10/11 07:07:44;;;;;;;2.88;0.85;;;20.30;78.50;;;;;;4969387;28;45431;-72
2022/10/11 07:10:10;;;;;;;4.40;1.00;;;20.30;78.50;;;;;;4981801;28;45284;-72
2022/10/11 07:12:37;;;;;;;1.98;1.10;;;20.30;78.50;;;;;;4984179;28;46086;-72
2022/10/11 07:15:05;;;;;;;2.58;0.90;;;20.30;78.50;;;;;;4984423;28;45285;-73
2022/10/11 07:17:31;;;;;;;2.28;1.10;;;20.30;78.50;;;;;;4977498;28;45303;-72
2022/10/11 07:19:59;;;;;;;2.05;0.85;;;20.30;78.50;;;;;;4980769;28;45590;-72
2022/10/11 07:22:26;;;;;;;2.05;1.10;;;20.30;78.50;;;;;;4982432;28;45363;-72
2022/10/11 07:24:53;;;;;;;2.42;1.20;;;20.30;78.50;;;;;;4981690;28;45458;-72
2022/10/11 07:27:22;;;;;;;2.90;1.00;;;20.30;78.50;;;;;;4981583;28;45308;-72
2022/10/11 07:29:49;;;;;;;2.08;1.02;;;20.40;78.30;;;;;;4983428;28;45393;-72
2022/10/11 07:32:16;;;;;;;1.70;1.00;;;20.40;78.50;;;;;;4982918;28;46606;-72
2022/10/11 07:34:43;;;;;;;3.28;1.10;;;20.40;78.20;;;;;;4983021;28;45307;-73
2022/10/11 07:37:11;;;;;;;4.05;1.08;;;20.40;78.20;;;;;;4980318;28;45303;-72
2022/10/11 07:39:38;;;;;;;1.63;1.10;;;20.40;78.00;;;;;;4978299;28;45334;-72
2022/10/11 07:42:05;;;;;;;1.38;1.00;;;20.40;78.10;;;;;;4983854;28;46283;-73
2022/10/11 07:44:33;;;;;;;5.10;1.15;;;20.40;78.00;;;;;;4979077;28;45400;-72
2022/10/11 07:46:59;;;;;;;1.70;0.90;;;20.40;77.40;;;;;;4977783;28;45453;-72
2022/10/11 07:49:26;;;;;;;2.70;1.55;;;20.40;77.80;;;;;;4975030;28;45485;-72
2022/10/11 07:51:53;;;;;;;2.80;0.80;;;20.40;77.90;;;;;;4977842;28;46594;-72
2022/10/11 07:54:21;;;;;;;1.23;0.90;;;20.40;77.80;;;;;;4982760;28;46014;-72
2022/10/11 07:56:48;;;;;;;1.60;0.80;;;20.40;77.80;;;;;;4981276;28;45640;-72
2022/10/11 07:59:14;;;;;;;1.55;0.70;;;20.40;77.60;;;;;;4981839;28;45322;-72
2022/10/11 08:01:41;;;;;;;1.35;0.75;;;20.40;77.30;;;;;;4996427;28;49166;-72
2022/10/11 08:04:08;;;;;;;1.95;1.08;;;20.40;77.30;;;;;;5002139;28;45508;-70
2022/10/11 08:06:36;;;;;;;1.80;0.73;;;20.40;77.40;;;;;;5002882;28;45624;-72
2022/10/11 08:09:04;;;;;;;1.67;0.60;;;20.40;77.50;;;;;;5002068;28;45430;-72
2022/10/11 08:11:34;;;;;;;1.95;0.80;;;20.30;77.10;;;;;;5001972;28;45603;-72
2022/10/11 08:14:04;;;;;;;1.63;1.00;;;20.40;77.30;;;;;;5000874;28;45366;-72
2022/10/11 08:16:30;;;;;;;1.00;0.77;;;20.40;77.50;;;;;;5001898;28;45347;-73
2022/10/11 08:18:57;;;;;;;1.27;0.90;;;20.40;77.60;;;;;;4998983;28;45578;-73
2022/10/11 08:21:25;;;;;;;1.27;0.90;;;20.40;77.80;;;;;;5000883;28;47441;-72
2022/10/11 08:23:52;;;;;;;0.82;0.70;;;20.40;77.80;;;;;;5000826;28;45366;-73
2022/10/11 08:26:19;;;;;;;3.42;1.08;;;20.40;78.00;;;;;;5002187;28;45575;-72
2022/10/11 08:28:47;;;;;;;1.95;0.90;;;20.40;78.00;;;;;;5002092;28;45358;-72
2022/10/11 08:31:15;;;;;;;1.33;0.90;;;20.40;77.90;;;;;;5001336;28;46183;-72
2022/10/11 08:33:42;;;;;;;1.33;0.90;;;20.40;77.70;;;;;;4995199;28;45260;-73
2022/10/11 08:36:09;;;;;;;1.27;0.93;;;20.40;77.70;;;;;;5001473;28;45416;-72
2022/10/11 08:38:37;;;;;;;2.08;1.00;;;20.40;77.80;;;;;;5001230;28;45477;-73
2022/10/11 08:41:27;;;;;;;1.63;0.95;;;20.40;77.50;;;;;;5001573;28;45517;-72
2022/10/11 08:44:05;;;;;;;1.27;0.73;;;20.40;77.80;;;;;;4997736;28;45332;-73
2022/10/11 08:46:36;;;;;;;1.58;0.77;;;20.50;77.70;;;;;;4994378;28;45431;-72
2022/10/11 08:49:06;;;;;;;1.98;1.00;;;20.40;77.50;;;;;;4999024;28;45402;-72
2022/10/11 08:51:38;;;;;;;1.17;0.80;;;20.40;77.40;;;;;;5001546;28;45722;-72
2022/10/11 08:54:12;;;;;;;1.77;1.10;;;20.50;77.20;;;;;;5000752;28;45390;-72
2022/10/11 08:56:40;;;;;;;1.90;1.00;;;20.40;77.20;;;;;;5000519;28;45243;-72
2022/10/11 08:59:22;;;;;;;2.03;0.90;;;20.40;77.10;;;;;;4999557;28;45589;-72
2022/10/11 09:01:58;;;;;;;2.85;0.90;;;20.40;77.30;;;;;;4978787;28;45407;-71
2022/10/11 09:04:24;;;;;;;1.77;0.90;;;20.50;78.20;;;;;;4982465;28;45282;-71
2022/10/11 09:06:58;;;;;;;1.65;1.00;;;20.50;77.40;;;;;;4974848;28;45303;-71
2022/10/11 09:09:45;;;;;;;1.67;1.08;;;20.50;77.30;;;;;;4984732;28;45311;-71
2022/10/11 09:12:19;;;;;;;1.38;0.90;;;20.50;77.10;;;;;;4985275;28;45378;-71
2022/10/11 09:15:11;;;;;;;2.53;1.00;;;20.50;77.20;;;;;;4986431;28;45351;-71
2022/10/11 09:17:54;;;;;;;1.83;1.00;;;20.50;77.10;;;;;;4981574;28;45403;-71
2022/10/11 09:20:35;;;;;;;1.92;0.85;;;20.50;77.10;;;;;;4985356;28;45439;-71
2022/10/11 09:23:11;;;;;;;1.75;1.10;;;20.50;77.10;;;;;;4983587;28;45754;-72
2022/10/11 09:25:45;;;;;;;1.25;0.90;;;20.50;77.40;;;;;;4974724;28;45439;-71
2022/10/11 09:28:18;;;;;;;2.40;1.00;;;20.50;77.50;;;;;;4987425;28;45352;-71
2022/10/11 09:30:50;;;;;;;2.13;0.98;;;20.50;77.40;;;;;;4982724;28;45647;-72
2022/10/11 09:33:19;;;;;;;1.45;1.02;;;20.50;77.40;;;;;;4980059;28;46278;-71
2022/10/11 09:35:48;;;;;;;1.90;0.98;;;20.50;77.30;;;;;;4978331;28;45460;-71
2022/10/11 09:38:26;;;;;;;3.13;1.40;;;20.50;77.40;;;;;;4987852;28;45356;-72
2022/10/11 09:41:03;;;;;;;2.42;1.50;;;20.50;77.40;;;;;;4981154;28;45265;-71
2022/10/11 09:43:30;;;;;;;2.35;1.38;;;20.60;77.30;;;;;;4967943;28;46267;-71
2022/10/11 09:45:58;;;;;;;4.13;1.20;;;20.60;77.20;;;;;;4979113;28;45380;-71
2022/10/11 09:48:30;;;;;;;3.05;1.23;;;20.60;77.20;;;;;;4984558;28;45298;-71
2022/10/11 09:51:03;;;;;;;1.95;1.40;;;20.60;77.00;;;;;;4973823;28;45415;-71
2022/10/11 09:53:54;;;;;;;2.05;1.50;;;20.60;77.00;;;;;;4976817;28;45279;-71
2022/10/11 09:56:22;;;;;;;3.20;1.73;;;20.60;76.90;;;;;;4975994;28;45419;-71
2022/10/11 09:58:49;;;;;;;2.40;1.60;;;20.60;76.70;;;;;;4982782;28;45276;-71
2022/10/11 10:01:26;;;;;;;2.40;1.67;;;20.60;76.60;;;;;;4974255;28;45457;-71
2022/10/11 10:04:06;;;;;;;2.42;1.70;;;20.60;76.60;;;;;;4969373;28;48231;-71
2022/10/11 10:06:33;;;;;;;2.45;1.50;;;20.60;76.50;;;;;;4977435;28;45353;-73
2022/10/11 10:09:24;;;;;;;3.80;1.80;;;20.60;76.60;;;;;;4970968;28;45399;-73
2022/10/11 10:11:51;;;;;;;3.10;2.15;;;20.60;77.00;;;;;;4979500;28;45497;-72
2022/10/11 10:14:24;;;;;;;3.60;1.95;;;20.60;76.70;;;;;;4975298;28;47639;-72
2022/10/11 10:17:02;;;;;;;2.25;1.80;;;20.60;76.60;;;;;;4984286;28;45306;-72
2022/10/11 10:19:29;;;;;;;3.05;1.80;;;20.60;76.60;;;;;;4975833;28;45495;-72
2022/10/11 10:21:56;;;;;;;2.67;1.88;;;20.60;76.70;;;;;;4983313;28;45417;-73
2022/10/11 10:24:36;;;;;;;3.10;1.90;;;20.60;76.70;;;;;;4973880;28;45679;-73
2022/10/11 10:27:19;;;;;;;3.83;2.00;;;20.60;77.00;;;;;;4975781;28;45278;-74
2022/10/11 10:30:12;;;;;;;2.80;1.88;;;20.60;77.10;;;;;;4981236;28;45426;-74
2022/10/11 10:32:48;;;;;;;4.95;1.98;;;20.60;77.10;;;;;;4985668;28;45473;-74
2022/10/11 10:35:26;;;;;;;2.63;1.88;;;20.60;77.30;;;;;;4983300;28;48313;-74
2022/10/11 10:37:59;;;;;;;2.85;2.13;;;20.60;77.30;;;;;;4976425;28;45387;-74
2022/10/11 10:40:32;;;;;;;3.42;2.05;;;20.60;77.30;;;;;;4976325;28;45453;-74
2022/10/11 10:42:59;;;;;;;2.97;2.25;;;20.60;77.40;;;;;;4981864;28;45381;-73
2022/10/11 10:45:36;;;;;;;3.08;2.13;;;20.60;77.50;;;;;;4978898;28;45344;-73
2022/10/11 10:48:16;;;;;;;3.88;2.15;;;20.60;77.30;;;;;;4984390;28;45469;-73
2022/10/11 10:50:50;;;;;;;3.35;1.90;;;20.60;77.50;;;;;;4984034;28;45352;-73
2022/10/11 10:53:27;;;;;;;3.65;2.30;;;20.60;77.40;;;;;;4979885;28;45457;-73
2022/10/11 10:56:02;;;;;;;3.50;2.15;;;20.60;77.40;;;;;;4979341;28;45307;-73
2022/10/11 10:58:49;;;;;;;3.38;2.30;;;20.60;77.50;;;;;;4981673;28;45473;-73
2022/10/11 11:01:23;;;;;;;3.08;2.47;;;20.60;77.40;;;;;;4994884;28;45670;-73
2022/10/11 11:03:57;;;;;;;3.25;2.08;;;20.60;77.50;;;;;;5002902;28;45459;-73
2022/10/11 11:06:30;;;;;;;3.75;2.22;;;20.60;77.50;;;;;;5003722;28;48112;-73
2022/10/11 11:09:05;;;;;;;3.78;2.45;;;20.70;77.70;;;;;;5004056;28;45293;-73
2022/10/11 11:11:43;;;;;;;4.75;2.13;;;20.60;77.60;;;;;;4995354;28;45352;-73
2022/10/11 11:14:20;;;;;;;3.55;2.10;;;20.70;77.70;;;;;;5003376;28;45534;-74
2022/10/11 11:16:55;;;;;;;3.97;2.30;;;20.60;77.60;;;;;;5001565;28;48081;-73
2022/10/11 11:19:37;;;;;;;5.65;2.97;;;20.60;77.50;;;;;;5002368;28;45430;-74
2022/10/11 11:22:10;;;;;;;3.95;2.40;;;20.60;77.50;;;;;;4993819;28;45588;-73
2022/10/11 11:24:47;;;;;;;4.78;2.50;;;20.60;77.40;;;;;;5002090;28;45355;-73
2022/10/11 11:27:34;;;;;;;5.45;2.83;;;20.60;77.40;;;;;;5003810;28;46542;-72
2022/10/11 11:30:05;;;;;;;5.25;2.55;;;20.60;77.30;;;;;;5000500;28;45369;-72
2022/10/11 11:32:42;;;;;;;4.18;2.88;;;20.60;77.30;;;;;;4998926;28;45358;-71
2022/10/11 11:35:17;;;;;;;5.15;2.70;;;20.60;77.30;;;;;;5004815;28;45501;-72
2022/10/11 11:37:46;;;;;;;5.90;3.17;;;20.60;77.30;;;;;;4999721;28;45251;-71
2022/10/11 11:40:17;;;;;;;5.55;2.70;;;20.60;77.40;;;;;;5000542;28;45886;-71
2022/10/11 11:42:48;;;;;;;5.43;2.60;;;20.60;77.40;;;;;;5001695;28;45350;-71
2022/10/11 11:45:21;;;;;;;4.43;2.92;;;20.60;77.30;;;;;;5001203;28;45418;-71
2022/10/11 11:47:52;;;;;;;4.80;2.33;;;20.60;77.50;;;;;;5003165;28;48220;-71
2022/10/11 11:50:24;;;;;;;4.90;2.90;;;20.60;77.60;;;;;;5002392;28;46293;-72
2022/10/11 11:52:54;;;;;;;4.22;2.65;;;20.60;77.60;;;;;;5002685;28;45437;-72
2022/10/11 11:55:26;;;;;;;4.45;2.40;;;20.60;77.60;;;;;;4998227;28;45453;-72
2022/10/11 11:58:00;;;;;;;4.18;2.70;;;20.60;77.70;;;;;;5002441;28;45426;-71
2022/10/11 12:00:31;;;;;;;4.40;2.70;;;20.60;78.10;;;;;;4990452;28;46215;-71
2022/10/11 12:03:02;;;;;;;5.70;2.58;;;20.60;78.10;;;;;;4974378;28;45523;-71
2022/10/11 12:05:33;;;;;;;4.60;2.60;;;20.60;78.20;;;;;;4971615;28;45394;-72
2022/10/11 12:08:02;;;;;;;4.25;2.50;;;20.60;78.20;;;;;;4976514;28;47100;-72
2022/10/11 12:10:36;;;;;;;3.53;2.13;;;20.60;78.40;;;;;;4974885;28;45296;-72
2022/10/11 12:13:17;;;;;;;4.63;2.63;;;20.60;78.40;;;;;;4982951;28;45267;-71
2022/10/11 12:16:01;;;;;;;5.88;2.50;;;20.60;78.10;;;;;;4982481;28;45252;-71
2022/10/11 12:18:29;;;;;;;5.60;2.85;;;20.60;78.20;;;;;;4977137;28;47346;-72
2022/10/11 12:21:06;;;;;;;3.53;2.17;;;20.60;78.20;;;;;;4983331;28;45336;-72
2022/10/11 12:23:43;;;;;;;4.82;2.33;;;20.60;78.00;;;;;;4983121;28;45448;-72
2022/10/11 12:26:38;;;;;;;2.97;1.90;;;20.60;78.00;;;;;;4985059;28;45226;-72
2022/10/11 12:29:41;;;;;;;3.88;2.50;;;20.60;78.00;;;;;;4982386;28;47457;-72
2022/10/11 12:32:30;;;;;;;4.47;2.28;;;20.60;77.90;;;;;;4976459;28;45347;-71
2022/10/11 12:35:30;;;;;;;3.88;2.17;;;20.60;77.90;;;;;;4974653;28;45383;-72
2022/10/11 12:38:13;;;;;;;3.58;1.75;;;20.60;77.70;;;;;;4978081;28;45273;-71
2022/10/11 12:40:41;;;;;;;3.00;2.00;;;20.60;77.80;;;;;;4966680;28;46777;-72
2022/10/11 12:43:26;;;;;;;3.65;1.73;;;20.60;77.70;;;;;;4980111;28;45373;-72
2022/10/11 12:45:53;;;;;;;2.60;1.77;;;20.60;77.70;;;;;;4975817;28;45545;-72
2022/10/11 12:48:41;;;;;;;3.42;1.75;;;20.60;77.50;;;;;;4979546;28;45425;-72
2022/10/11 12:51:32;;;;;;;2.85;1.70;;;20.60;77.50;;;;;;4977744;28;45442;-72
2022/10/11 12:54:17;;;;;;;3.13;1.85;;;20.60;77.30;;;;;;4980535;28;45552;-72
2022/10/11 12:56:49;;;;;;;4.03;2.03;;;20.60;77.10;;;;;;4981000;28;45434;-72
2022/10/11 12:59:19;;;;;;;3.90;1.80;;;20.60;77.10;;;;;;4979868;28;45378;-72
2022/10/11 13:01:51;;;;;;;3.35;1.92;;;20.60;77.20;;;;;;4976257;28;46798;-72
2022/10/11 13:04:21;;;;;;;2.22;1.55;;;20.50;77.20;;;;;;4981467;28;45420;-72
2022/10/11 13:06:52;;;;;;;3.42;1.50;;;20.50;77.40;;;;;;4981236;28;45466;-72
2022/10/11 13:09:28;;;;;;;3.47;1.50;;;20.50;77.20;;;;;;4976602;28;45248;-72